USTRANSCOM 7581


KWRI
Joint Base McGuire Dix Lakehurst
Wrightstown, New Jersey, US
EGUN
RAF Mildenhall
Mildenhall, , GB

Activity Log

Date Flight Route Aircraft Duration
No Flights Yet

Route Details

Aircraft Information
Primary: Boeing 767-300BDSF
Backup: Boeing 757-200SF
Route Data
Distance: 3069nm
Sched. Duration: 6h 40m
Avg. Duration: 0h 00m (-640m)
Times Flown: 0
Recm'd Route: Not Available
Planned Altitude: 31,000ft
Origin Wx: KWRI 231256Z AUTO 22003KT 10SM CLR M01/M05 A3026 RMK AO2 SLP248 T10071049 CHINO RWY24 $
Dest. Wx: EGUN 231255Z 31019G28KT 9999 FEW050 SCT065 11/05 A2989 RMK SLP120 WND DATA ESTMD ALTSG ESTMD RVRNO
Notes: USTRANSCOM CONTRACT FLIGHT

Financial History
Total Freight: 0lbs
Average Load: 0lbs/flt
Fuel Used: 0lbs
Avg. Fuel Used: 0lbs/flt
Fuel Expense: $0
Avg. Fuel Expense: $0
Avg. Fuel Cost: $0/lbs
Total Gross Income: $0
Pilot Pay: $0
Total Expenses: $0
Total Revenue: $0
Average Revenue: $0